createdAt,value
2023-01-25T00:02:44.611Z,102193.75
2023-01-25T00:10:04.651Z,102177.84
2023-01-25T00:17:22.796Z,102166.09
2023-01-25T00:24:40.895Z,102169.84
2023-01-25T00:32:43.420Z,102165.47
2023-01-25T00:40:01.715Z,102152.72
2023-01-25T00:47:21.309Z,102140.53
2023-01-25T00:54:39.687Z,102140.47
2023-01-25T01:01:58.723Z,102137.81
2023-01-25T01:09:19.602Z,102112.13
2023-01-25T01:16:38.105Z,102104.97
2023-01-25T01:23:56.689Z,102097.56
2023-01-25T01:31:18.616Z,102088.75
2023-01-25T01:38:46.121Z,102099.84
2023-01-25T01:46:05.353Z,102084.13
2023-01-25T01:53:28.905Z,102074.78
2023-01-25T02:00:47.201Z,102069.72
2023-01-25T02:08:06.874Z,102068.34
2023-01-25T02:15:29.376Z,102065.34
2023-01-25T02:22:54.196Z,102078.03
2023-01-25T02:30:14.156Z,102074.28
2023-01-25T02:37:32.460Z,102067.94
2023-01-25T02:44:51.461Z,102062.56
2023-01-25T02:52:11.113Z,102061.78
2023-01-25T02:59:29.348Z,102063.41
2023-01-25T03:06:51.962Z,102055.75
2023-01-25T03:14:12.199Z,102038.13
2023-01-25T03:21:30.933Z,102039.09
2023-01-25T03:28:49.405Z,102040.50
2023-01-25T03:36:10.735Z,102024.06
2023-01-25T03:43:29.963Z,102023.41
2023-01-25T03:50:52.494Z,102016.13
2023-01-25T03:58:13.417Z,102018.47
2023-01-25T04:05:32.320Z,102006.22
2023-01-25T04:12:51.670Z,101999.03
2023-01-25T04:20:13.060Z,101994.59
2023-01-25T04:27:32.303Z,101981.63
2023-01-25T04:35:03.763Z,101977.25
2023-01-25T04:42:24.321Z,101986.38
2023-01-25T04:49:46.331Z,101978.69
2023-01-25T04:57:08.361Z,101978.59
2023-01-25T05:04:29.693Z,101967.66
2023-01-25T05:11:48.331Z,101961.75
2023-01-25T05:19:15.818Z,101964.47
2023-01-25T05:27:03.751Z,101952.53
2023-01-25T05:34:59.304Z,101948.88
2023-01-25T05:42:20.223Z,101944.13
2023-01-25T05:49:39.186Z,101947.50
2023-01-25T05:57:00.285Z,101940.00
2023-01-25T06:04:20.327Z,101936.25
2023-01-25T06:11:39.089Z,101919.03
2023-01-25T06:18:57.484Z,101918.25
2023-01-25T06:26:38.729Z,101921.69
2023-01-25T06:33:59.930Z,101924.91
2023-01-25T06:41:19.021Z,101924.28
2023-01-25T06:48:38.857Z,101920.72
2023-01-25T06:56:00.989Z,101910.16
2023-01-25T07:03:19.214Z,101903.22
2023-01-25T07:10:38.805Z,101901.59
2023-01-25T07:18:03.242Z,101891.22
2023-01-25T07:25:29.827Z,101893.81
2023-01-25T07:32:49.417Z,101901.16
2023-01-25T07:40:08.820Z,101887.53
2023-01-25T07:47:26.988Z,101889.28
2023-01-25T07:54:48.329Z,101885.75
2023-01-25T08:02:09.344Z,101882.34
2023-01-25T08:09:28.600Z,101861.44
2023-01-25T08:16:48.133Z,101862.34
2023-01-25T08:24:07.917Z,101869.16
2023-01-25T08:31:28.353Z,101868.47
2023-01-25T08:38:48.585Z,101855.63
2023-01-25T08:46:07.445Z,101839.75
2023-01-25T08:53:25.800Z,101825.56
2023-01-25T09:00:45.560Z,101811.00
2023-01-25T09:08:05.482Z,101812.09
2023-01-25T09:15:24.229Z,101816.81
2023-01-25T09:22:43.795Z,101824.09
2023-01-25T09:30:03.278Z,101810.69
2023-01-25T09:37:22.570Z,101803.13
2023-01-25T09:44:52.486Z,101781.28
2023-01-25T09:52:22.677Z,101786.41
2023-01-25T09:59:42.046Z,101772.78
2023-01-25T10:07:08.068Z,101763.56
2023-01-25T10:14:26.723Z,101764.16
2023-01-25T10:21:47.200Z,101752.13
2023-01-25T10:29:12.581Z,101751.41
2023-01-25T10:36:31.974Z,101734.66
2023-01-25T10:44:10.325Z,101736.84
2023-01-25T10:51:35.537Z,101726.78
2023-01-25T10:58:55.560Z,101725.69
2023-01-25T11:06:14.344Z,101709.88
2023-01-25T11:13:35.387Z,101688.25
2023-01-25T11:21:06.230Z,101682.91
2023-01-25T11:28:25.497Z,101662.66
2023-01-25T11:36:03.451Z,101643.69
2023-01-25T11:43:33.989Z,101619.28
2023-01-25T11:51:00.821Z,101609.28
2023-01-25T11:58:36.098Z,101595.09
2023-01-25T12:06:00.538Z,101591.66
2023-01-25T12:13:25.566Z,101578.75
2023-01-25T12:21:17.494Z,101570.16
2023-01-25T12:28:45.888Z,101547.78
2023-01-25T12:36:08.614Z,101528.75
2023-01-25T12:43:32.059Z,101514.59
2023-01-25T12:50:52.586Z,101520.34
2023-01-25T12:58:26.505Z,101516.31
2023-01-25T13:05:57.758Z,101511.91
2023-01-25T13:13:25.383Z,101491.19
2023-01-25T13:20:50.883Z,101490.19
2023-01-25T13:28:42.973Z,101485.63
2023-01-25T13:36:45.382Z,101472.69
2023-01-25T13:44:28.464Z,101460.84
2023-01-25T13:51:47.940Z,101464.69
2023-01-25T13:59:06.423Z,101455.66
2023-01-25T14:06:28.007Z,101455.53
2023-01-25T14:13:57.202Z,101448.31
2023-01-25T14:21:18.436Z,101435.72
2023-01-25T14:28:37.962Z,101420.22
2023-01-25T14:36:03.490Z,101411.41
2023-01-25T14:43:31.115Z,101392.16
2023-01-25T14:50:50.821Z,101387.97
2023-01-25T14:58:14.425Z,101375.44
2023-01-25T15:05:33.713Z,101367.94
2023-01-25T15:13:13.295Z,101361.69
2023-01-25T15:20:38.006Z,101335.22
2023-01-25T15:27:56.312Z,101336.38
2023-01-25T15:35:19.363Z,101329.97
2023-01-25T15:42:37.589Z,101328.19
2023-01-25T15:49:55.849Z,101321.41
2023-01-25T15:57:22.046Z,101299.88
2023-01-25T16:04:42.372Z,101296.97
2023-01-25T16:12:02.837Z,101285.13
2023-01-25T16:19:25.593Z,101278.56
2023-01-25T16:26:46.567Z,101277.03
2023-01-25T16:34:05.167Z,101269.72
2023-01-25T16:41:24.799Z,101266.19
2023-01-25T16:48:42.994Z,101265.19
2023-01-25T16:56:01.168Z,101263.97
2023-01-25T17:03:20.766Z,101243.84
2023-01-25T17:10:39.408Z,101227.50
2023-01-25T17:18:00.130Z,101221.06
2023-01-25T17:25:20.586Z,101205.34
2023-01-25T17:32:38.911Z,101191.94
2023-01-25T17:39:57.129Z,101194.97
2023-01-25T17:47:16.851Z,101195.38
2023-01-25T17:54:36.413Z,101196.47
2023-01-25T18:01:54.730Z,101185.91
2023-01-25T18:09:14.291Z,101174.13
2023-01-25T18:16:33.834Z,101173.75
2023-01-25T18:23:52.792Z,101162.91
2023-01-25T18:31:12.900Z,101151.53
2023-01-25T18:38:32.945Z,101148.88
2023-01-25T18:45:55.746Z,101145.84
2023-01-25T18:53:17.730Z,101133.53
2023-01-25T19:00:36.311Z,101117.63
2023-01-25T19:07:54.505Z,101116.75
2023-01-25T19:15:14.259Z,101111.88
2023-01-25T19:22:32.679Z,101089.22
2023-01-25T19:29:51.649Z,101098.63
2023-01-25T19:37:11.288Z,101093.56
2023-01-25T19:44:29.911Z,101088.84
2023-01-25T19:51:53.257Z,101084.34
2023-01-25T19:59:15.052Z,101070.22
2023-01-25T20:06:33.809Z,101060.41
2023-01-25T20:13:54.244Z,101051.03
2023-01-25T20:21:15.403Z,101042.09
2023-01-25T20:28:34.753Z,101024.41
2023-01-25T20:35:55.156Z,101019.13
2023-01-25T20:43:14.728Z,101001.31
2023-01-25T20:50:32.885Z,101001.91
2023-01-25T20:57:53.490Z,100990.84
2023-01-25T21:05:13.848Z,100974.19
2023-01-25T21:12:33.558Z,100975.88
2023-01-25T21:19:51.933Z,100966.59
2023-01-25T21:27:11.845Z,100970.56
2023-01-25T21:34:31.091Z,100967.97
2023-01-25T21:41:49.399Z,100968.09
2023-01-25T21:49:28.057Z,100973.91
2023-01-25T21:56:49.260Z,100969.81
2023-01-25T22:04:08.809Z,100962.38
2023-01-25T22:11:27.258Z,100959.69
2023-01-25T22:18:45.789Z,100947.84
2023-01-25T22:26:08.062Z,100951.81
2023-01-25T22:33:26.332Z,100928.91
2023-01-25T22:40:44.761Z,100921.22
2023-01-25T22:48:04.289Z,100905.38
2023-01-25T22:55:22.536Z,100896.34
2023-01-25T23:02:40.715Z,100890.28
2023-01-25T23:10:00.565Z,100876.34
2023-01-25T23:17:48.151Z,100874.41
2023-01-25T23:25:09.988Z,100862.03
2023-01-25T23:32:29.081Z,100858.13
2023-01-25T23:39:47.705Z,100844.22
2023-01-25T23:47:07.602Z,100845.72
2023-01-25T23:54:27.032Z,100839.63
